Time;durP1;ratioP1;P1;durP2;ratioP2;P2;SDS_P1;SDS_P2;PMS_P1;PMS_P2;Temp;Humidity;BMP_temperature;BMP_pressure;BME280_temperature;BME280_humidity;BME280_pressure;Samples;Min_cycle;Max_cycle;Signal;HPM_P1;HPM_P2
2021/03/03 08:54:43;;;;;;;;;13.75;13.75;;;;;;;;1513781;27;1209239;-90
2021/03/03 08:55:32;;;;;;;;;14.80;14.80;;;;;;;;1553191;28;85329;-88
2021/03/03 08:56:38;;;;;;;;;18.40;16.80;;;;;;;;1547012;28;84555;-89
2021/03/03 08:57:33;;;;;;;;;13.60;13.60;;;;;;;;1552285;28;85619;-89
2021/03/03 08:58:38;;;;;;;;;18.00;16.40;;;;;;;;1546728;28;84905;-89
2021/03/03 08:59:42;;;;;;;;;21.20;21.20;;;;;;;;1533173;28;86128;-90
2021/03/03 09:00:46;;;;;;;;;22.40;21.40;;;;;;;;1546968;28;83563;-87
2021/03/03 09:01:50;;;;;;;;;21.80;21.80;;;;;;;;1552951;28;83240;-87
2021/03/03 09:02:36;;;;;;;;;23.40;23.40;;;;;;;;1541945;28;84974;-88
2021/03/03 09:03:22;;;;;;;;;15.20;15.20;;;;;;;;1540581;28;87127;-88
2021/03/03 09:04:08;;;;;;;;;20.25;19.50;;;;;;;;1540535;28;86258;-89
2021/03/03 09:04:54;;;;;;;;;19.40;19.40;;;;;;;;1540999;28;86571;-88
2021/03/03 09:05:39;;;;;;;;;18.80;17.60;;;;;;;;1534515;28;84640;-92
2021/03/03 09:06:25;;;;;;;;;21.25;20.75;;;;;;;;1530690;28;86739;-89
2021/03/03 09:07:21;;;;;;;;;15.75;15.75;;;;;;;;1530323;28;86868;-89
2021/03/03 09:08:17;;;;;;;;;16.00;15.80;;;;;;;;1531848;28;85269;-88
2021/03/03 09:09:02;;;;;;;;;18.80;18.80;;;;;;;;1534798;28;84821;-88
2021/03/03 09:09:49;;;;;;;;;17.75;17.75;;;;;;;;1540150;28;84499;-85
2021/03/03 09:10:35;;;;;;;;;16.00;16.00;;;;;;;;1544941;28;84170;-87
2021/03/03 09:11:20;;;;;;;;;20.25;20.00;;;;;;;;1542649;28;84737;-89
2021/03/03 09:12:06;;;;;;;;;21.00;21.00;;;;;;;;1542201;28;84777;-87
2021/03/03 09:12:52;;;;;;;;;23.40;23.20;;;;;;;;1547695;28;84019;-88
2021/03/03 09:13:37;;;;;;;;;20.50;20.50;;;;;;;;1544903;28;84440;-87
2021/03/03 09:14:23;;;;;;;;;18.25;18.25;;;;;;;;1542238;28;84531;-88
2021/03/03 09:15:10;;;;;;;;;18.50;18.50;;;;;;;;1537372;28;86382;-88
2021/03/03 09:16:05;;;;;;;;;14.80;14.80;;;;;;;;1538890;28;85522;-87
2021/03/03 09:16:55;;;;;;;;;22.40;22.40;;;;;;;;1550953;28;84774;-87
2021/03/03 09:17:40;;;;;;;;;17.60;17.60;;;;;;;;1552048;28;85199;-87
2021/03/03 09:18:26;;;;;;;;;21.00;21.00;;;;;;;;1552403;28;83434;-88
2021/03/03 09:19:11;;;;;;;;;18.80;18.80;;;;;;;;1548541;28;84564;-88
2021/03/03 09:19:58;;;;;;;;;23.00;21.75;;;;;;;;1542533;28;85402;-87
2021/03/03 09:20:43;;;;;;;;;17.60;17.60;;;;;;;;1538684;28;85810;-88
2021/03/03 09:21:29;;;;;;;;;20.25;18.50;;;;;;;;1544654;28;85319;-88
2021/03/03 09:22:26;;;;;;;;;22.80;22.80;;;;;;;;1548472;28;85501;-88
2021/03/03 09:23:21;;;;;;;;;22.00;22.00;;;;;;;;1547964;28;84176;-88
2021/03/03 09:24:10;;;;;;;;;21.20;21.20;;;;;;;;1547819;28;84412;-88
2021/03/03 09:25:03;;;;;;;;;22.20;21.40;;;;;;;;1544521;28;84360;-87
2021/03/03 09:25:48;;;;;;;;;14.40;13.80;;;;;;;;1544396;28;87033;-85
2021/03/03 09:26:33;;;;;;;;;17.00;17.00;;;;;;;;1538625;28;86444;-84
2021/03/03 09:27:20;;;;;;;;;16.25;16.25;;;;;;;;1532146;28;85089;-87
2021/03/03 09:28:05;;;;;;;;;16.00;16.00;;;;;;;;1537704;28;85482;-87
2021/03/03 09:28:50;;;;;;;;;13.00;12.67;;;;;;;;1534969;28;86412;-88
2021/03/03 09:29:37;;;;;;;;;19.50;19.50;;;;;;;;1535287;28;87843;-88
2021/03/03 09:30:23;;;;;;;;;17.40;17.40;;;;;;;;1531124;28;87863;-88
2021/03/03 09:31:08;;;;;;;;;17.33;16.33;;;;;;;;1531933;28;85185;-87
2021/03/03 09:31:54;;;;;;;;;17.00;17.00;;;;;;;;1533204;28;84083;-88
2021/03/03 09:32:39;;;;;;;;;17.25;17.25;;;;;;;;1536092;28;85411;-88
2021/03/03 09:33:24;;;;;;;;;16.75;16.50;;;;;;;;1535596;28;85338;-88
2021/03/03 09:34:09;;;;;;;;;17.25;17.25;;;;;;;;1542117;28;87710;-88
2021/03/03 09:34:57;;;;;;;;;17.75;17.00;;;;;;;;1545031;28;84156;-88
2021/03/03 09:35:42;;;;;;;;;17.60;17.60;;;;;;;;1542615;28;86131;-88
2021/03/03 09:36:28;;;;;;;;;24.00;24.00;;;;;;;;1542659;28;85442;-88
2021/03/03 09:37:13;;;;;;;;;14.00;14.00;;;;;;;;1548356;28;85163;-86
2021/03/03 09:37:59;;;;;;;;;15.33;15.33;;;;;;;;1539496;28;87083;-87
2021/03/03 09:38:51;;;;;;;;;17.67;17.67;;;;;;;;1536136;28;87166;-87
2021/03/03 09:39:36;;;;;;;;;17.50;17.50;;;;;;;;1540282;28;87388;-87
2021/03/03 09:40:26;;;;;;;;;17.33;17.33;;;;;;;;1537125;28;84088;-87
2021/03/03 09:41:11;;;;;;;;;15.50;15.50;;;;;;;;1543028;28;83399;-87
2021/03/03 09:41:58;;;;;;;;;16.33;16.33;;;;;;;;1536917;28;85930;-87
2021/03/03 09:42:47;;;;;;;;;15.75;15.00;;;;;;;;1534115;28;85549;-87
2021/03/03 09:43:32;;;;;;;;;12.50;12.50;;;;;;;;1536824;28;86758;-86
2021/03/03 09:44:17;;;;;;;;;13.00;13.00;;;;;;;;1540275;28;84759;-88
2021/03/03 09:45:03;;;;;;;;;19.67;19.33;;;;;;;;1534458;28;85107;-88
2021/03/03 09:45:54;;;;;;;;;11.00;11.00;;;;;;;;1534567;28;86255;-88
2021/03/03 09:46:56;;;;;;;;;16.25;16.25;;;;;;;;1537097;28;86277;-88
2021/03/03 09:47:42;;;;;;;;;15.25;14.00;;;;;;;;1534061;28;86488;-88
2021/03/03 09:48:27;;;;;;;;;20.00;20.00;;;;;;;;1536716;28;87320;-89
2021/03/03 09:49:19;;;;;;;;;19.00;19.00;;;;;;;;1533928;28;86544;-88
2021/03/03 09:50:09;;;;;;;;;18.00;18.00;;;;;;;;1537275;28;85157;-87
2021/03/03 09:50:56;;;;;;;;;17.25;17.25;;;;;;;;1534210;28;83593;-86
2021/03/03 09:51:45;;;;;;;;;21.25;19.50;;;;;;;;1537013;28;83937;-87
2021/03/03 09:52:34;;;;;;;;;19.00;19.00;;;;;;;;1536807;28;86522;-86
2021/03/03 09:53:19;;;;;;;;;17.50;17.50;;;;;;;;1539805;28;86790;-87
2021/03/03 09:54:05;;;;;;;;;14.33;14.00;;;;;;;;1539995;28;86334;-87
2021/03/03 09:54:50;;;;;;;;;18.00;17.00;;;;;;;;1534123;28;86305;-87
2021/03/03 09:55:37;;;;;;;;;14.67;14.67;;;;;;;;1530099;28;84707;-86
2021/03/03 09:56:30;;;;;;;;;19.00;17.75;;;;;;;;1539218;28;86707;-86
2021/03/03 09:57:19;;;;;;;;;20.50;19.75;;;;;;;;1546331;28;85061;-87
2021/03/03 09:58:05;;;;;;;;;21.25;21.25;;;;;;;;1543831;28;85321;-88
2021/03/03 09:58:51;;;;;;;;;18.00;18.00;;;;;;;;1542619;28;86513;-86
2021/03/03 09:59:39;;;;;;;;;19.00;19.00;;;;;;;;1542032;28;86173;-86
2021/03/03 10:00:26;;;;;;;;;13.75;13.75;;;;;;;;1542238;28;83908;-87
2021/03/03 10:01:11;;;;;;;;;14.00;14.00;;;;;;;;1536521;28;85141;-86
2021/03/03 10:01:57;;;;;;;;;15.33;15.33;;;;;;;;1534071;28;85152;-86
2021/03/03 10:02:47;;;;;;;;;8.67;8.67;;;;;;;;1536137;28;84711;-87
2021/03/03 10:03:33;;;;;;;;;16.50;16.50;;;;;;;;1543018;28;83908;-86
2021/03/03 10:04:19;;;;;;;;;16.75;16.75;;;;;;;;1540064;28;86628;-86
2021/03/03 10:05:04;;;;;;;;;18.67;18.67;;;;;;;;1536136;28;84838;-86
2021/03/03 10:05:53;;;;;;;;;18.67;18.67;;;;;;;;1536351;28;85938;-88
2021/03/03 10:06:38;;;;;;;;;17.75;17.50;;;;;;;;1529751;28;86730;-87
2021/03/03 10:07:24;;;;;;;;;15.67;15.67;;;;;;;;1532125;28;85923;-87
2021/03/03 10:08:11;;;;;;;;;15.50;14.75;;;;;;;;1532305;28;85622;-87
2021/03/03 10:08:56;;;;;;;;;14.00;14.00;;;;;;;;1530125;28;86033;-87
2021/03/03 10:09:42;;;;;;;;;16.00;14.00;;;;;;;;1532016;28;83564;-87
2021/03/03 10:10:31;;;;;;;;;12.33;12.33;;;;;;;;1538341;28;83961;-87
2021/03/03 10:11:17;;;;;;;;;16.00;16.00;;;;;;;;1539291;28;86990;-87
2021/03/03 10:12:05;;;;;;;;;14.00;14.00;;;;;;;;1547310;28;84467;-87
2021/03/03 10:12:50;;;;;;;;;18.00;18.00;;;;;;;;1548216;28;83238;-87
2021/03/03 10:13:41;;;;;;;;;16.00;16.00;;;;;;;;1544643;28;83740;-87
2021/03/03 10:14:26;;;;;;;;;10.00;10.00;;;;;;;;1548291;28;83952;-86
2021/03/03 10:15:12;;;;;;;;;16.67;16.67;;;;;;;;1544021;28;85321;-87
2021/03/03 10:15:57;;;;;;;;;14.00;14.00;;;;;;;;1542384;28;83611;-86
2021/03/03 10:16:57;;;;;;;;;11.33;11.33;;;;;;;;1537197;28;84791;-86
2021/03/03 10:17:50;;;;;;;;;16.75;16.00;;;;;;;;1537034;28;83197;-87
2021/03/03 10:18:35;;;;;;;;;16.00;15.75;;;;;;;;1542304;28;84943;-86
2021/03/03 10:19:20;;;;;;;;;17.33;17.33;;;;;;;;1536444;28;85176;-86
2021/03/03 10:20:09;;;;;;;;;17.33;16.33;;;;;;;;1537774;28;84088;-85
2021/03/03 10:20:55;;;;;;;;;15.25;15.25;;;;;;;;1541646;28;86458;-89
2021/03/03 10:21:44;;;;;;;;;13.75;13.75;;;;;;;;1538309;28;85289;-89
2021/03/03 10:22:30;;;;;;;;;12.25;12.25;;;;;;;;1532687;28;86266;-87
2021/03/03 10:23:16;;;;;;;;;13.50;13.50;;;;;;;;1529474;28;85726;-86
2021/03/03 10:24:12;;;;;;;;;13.25;12.25;;;;;;;;1531929;28;85897;-88
2021/03/03 10:25:02;;;;;;;;;15.75;15.75;;;;;;;;1530281;28;85347;-88
2021/03/03 10:25:50;;;;;;;;;14.50;14.25;;;;;;;;1532879;28;86392;-87
2021/03/03 10:26:45;;;;;;;;;11.25;11.25;;;;;;;;1533161;28;84542;-87
2021/03/03 10:27:40;;;;;;;;;12.00;11.00;;;;;;;;1533791;28;84289;-87
2021/03/03 10:28:26;;;;;;;;;15.75;15.75;;;;;;;;1530272;28;85373;-87
2021/03/03 10:29:33;;;;;;;;;13.75;13.75;;;;;;;;1533646;28;84331;-88
2021/03/03 10:30:29;;;;;;;;;11.00;11.00;;;;;;;;1535010;28;85772;-87
2021/03/03 10:31:21;;;;;;;;;17.75;16.75;;;;;;;;1539236;28;86495;-86
2021/03/03 10:32:15;;;;;;;;;16.00;15.00;;;;;;;;1539326;28;85946;-87
2021/03/03 10:33:00;;;;;;;;;17.25;17.25;;;;;;;;1534860;28;85941;-86
2021/03/03 10:33:47;;;;;;;;;10.33;10.33;;;;;;;;1534689;28;87181;-85
2021/03/03 10:34:33;;;;;;;;;13.00;13.00;;;;;;;;1533789;28;85926;-86
2021/03/03 10:35:18;;;;;;;;;9.33;9.33;;;;;;;;1533602;28;85712;-86
2021/03/03 10:36:08;;;;;;;;;9.67;9.67;;;;;;;;1539005;28;85922;-86
2021/03/03 10:36:53;;;;;;;;;11.00;11.00;;;;;;;;1534306;28;87315;-85
2021/03/03 10:37:38;;;;;;;;;9.33;9.33;;;;;;;;1529964;28;86981;-87
2021/03/03 10:38:24;;;;;;;;;15.67;15.67;;;;;;;;1532044;28;85671;-87
2021/03/03 10:39:10;;;;;;;;;15.00;15.00;;;;;;;;1529988;28;85390;-88
2021/03/03 10:39:55;;;;;;;;;17.33;17.33;;;;;;;;1531968;28;85348;-87
2021/03/03 10:40:41;;;;;;;;;13.33;13.33;;;;;;;;1531912;28;87143;-87
2021/03/03 10:41:28;;;;;;;;;11.50;11.50;;;;;;;;1529902;28;85496;-87
2021/03/03 10:42:19;;;;;;;;;6.50;6.00;;;;;;;;1526271;28;84675;-86
2021/03/03 10:43:08;;;;;;;;;13.75;13.75;;;;;;;;1532871;28;86429;-86
2021/03/03 10:43:54;;;;;;;;;10.75;10.75;;;;;;;;1536123;28;83404;-87
2021/03/03 10:44:40;;;;;;;;;12.33;12.33;;;;;;;;1538921;28;84207;-86
2021/03/03 10:45:25;;;;;;;;;13.00;12.25;;;;;;;;1536179;28;85706;-86
2021/03/03 10:46:16;;;;;;;;;13.67;13.67;;;;;;;;1529767;28;86792;-86
2021/03/03 10:47:01;;;;;;;;;12.75;12.75;;;;;;;;1532511;28;87024;-86
2021/03/03 10:47:49;;;;;;;;;13.00;13.00;;;;;;;;1539647;28;85087;-86
2021/03/03 10:48:34;;;;;;;;;10.75;10.00;;;;;;;;1532082;28;86263;-86
2021/03/03 10:49:21;;;;;;;;;15.33;14.00;;;;;;;;1538402;28;84196;-87
2021/03/03 10:50:07;;;;;;;;;15.75;15.75;;;;;;;;1538218;28;83458;-86
2021/03/03 10:50:53;;;;;;;;;14.00;12.00;;;;;;;;1542345;28;83598;-85
2021/03/03 10:51:38;;;;;;;;;15.00;15.00;;;;;;;;1536534;28;83581;-87
2021/03/03 10:52:24;;;;;;;;;15.75;15.75;;;;;;;;1535733;28;84734;-86
2021/03/03 10:53:09;;;;;;;;;13.00;13.00;;;;;;;;1537875;28;86314;-87
2021/03/03 10:53:59;;;;;;;;;11.00;11.00;;;;;;;;1542016;28;83632;-86
2021/03/03 10:54:44;;;;;;;;;14.00;14.00;;;;;;;;1538267;28;85526;-85
2021/03/03 10:55:34;;;;;;;;;10.00;10.00;;;;;;;;1541827;28;85535;-86
2021/03/03 10:56:25;;;;;;;;;14.50;14.50;;;;;;;;1541907;28;84967;-86
2021/03/03 10:57:10;;;;;;;;;11.00;11.00;;;;;;;;1541898;28;83665;-85
2021/03/03 10:58:09;;;;;;;;;11.33;11.33;;;;;;;;1533963;28;85353;-87
2021/03/03 10:59:01;;;;;;;;;11.00;11.00;;;;;;;;1529767;28;84988;-86
2021/03/03 10:59:46;;;;;;;;;8.50;8.50;;;;;;;;1534290;28;85507;-86
2021/03/03 11:00:51;;;;;;;;;9.00;9.00;;;;;;;;1536922;28;83419;-86
2021/03/03 11:01:41;;;;;;;;;10.00;10.00;;;;;;;;1539856;28;85312;-86
2021/03/03 11:02:26;;;;;;;;;9.75;9.75;;;;;;;;1532644;28;86642;-86
2021/03/03 11:03:12;;;;;;;;;10.33;10.33;;;;;;;;1529966;28;83873;-86
2021/03/03 11:03:58;;;;;;;;;11.67;11.00;;;;;;;;1525491;28;86564;-87
2021/03/03 11:04:45;;;;;;;;;11.75;11.75;;;;;;;;1531939;28;84848;-86
2021/03/03 11:05:30;;;;;;;;;11.50;10.25;;;;;;;;1529787;28;86576;-86
2021/03/03 11:06:16;;;;;;;;;8.00;7.00;;;;;;;;1531966;28;85130;-86
2021/03/03 11:07:01;;;;;;;;;9.33;8.33;;;;;;;;1541045;28;83272;-85
2021/03/03 11:07:46;;;;;;;;;8.67;8.00;;;;;;;;1537914;28;86283;-86
2021/03/03 11:08:32;;;;;;;;;12.00;12.00;;;;;;;;1535913;28;84813;-86
2021/03/03 11:09:19;;;;;;;;;13.00;12.33;;;;;;;;1537916;28;85860;-86
2021/03/03 11:10:04;;;;;;;;;12.75;10.75;;;;;;;;1535762;28;85366;-85
2021/03/03 11:10:49;;;;;;;;;9.33;9.33;;;;;;;;1538152;28;83494;-86
2021/03/03 11:11:45;;;;;;;;;9.33;9.33;;;;;;;;1544774;28;83724;-85
2021/03/03 11:12:30;;;;;;;;;12.00;10.50;;;;;;;;1542131;28;86487;-86
2021/03/03 11:13:16;;;;;;;;;8.33;8.33;;;;;;;;1545152;28;86424;-86
2021/03/03 11:14:01;;;;;;;;;9.00;8.33;;;;;;;;1548224;28;83402;-87
2021/03/03 11:14:46;;;;;;;;;9.67;9.67;;;;;;;;1544279;28;85903;-88
2021/03/03 11:15:31;;;;;;;;;8.33;8.33;;;;;;;;1542172;28;85775;-87
2021/03/03 11:16:17;;;;;;;;;9.00;9.00;;;;;;;;1540194;28;84571;-87
2021/03/03 11:17:03;;;;;;;;;13.33;12.00;;;;;;;;1531057;28;86212;-86
2021/03/03 11:17:48;;;;;;;;;10.25;10.25;;;;;;;;1530895;28;85484;-89
2021/03/03 11:18:33;;;;;;;;;8.67;8.67;;;;;;;;1532411;28;84865;-88
2021/03/03 11:19:19;;;;;;;;;9.33;9.33;;;;;;;;1530035;28;86083;-88
2021/03/03 11:20:04;;;;;;;;;8.67;8.67;;;;;;;;1529964;28;85900;-87
2021/03/03 11:20:49;;;;;;;;;9.33;9.33;;;;;;;;1531984;28;83972;-87
2021/03/03 11:21:35;;;;;;;;;7.00;7.00;;;;;;;;1535724;28;84863;-88
2021/03/03 11:22:20;;;;;;;;;6.67;6.67;;;;;;;;1541962;28;85827;-88
2021/03/03 11:23:06;;;;;;;;;9.67;9.67;;;;;;;;1538811;28;86308;-89
2021/03/03 11:23:51;;;;;;;;;8.00;8.00;;;;;;;;1538103;28;85961;-88
2021/03/03 11:24:36;;;;;;;;;9.00;9.00;;;;;;;;1533496;28;85031;-87
2021/03/03 11:25:21;;;;;;;;;11.00;11.00;;;;;;;;1532554;28;85138;-86
2021/03/03 11:26:07;;;;;;;;;9.33;9.33;;;;;;;;1532484;28;86103;-86
2021/03/03 11:26:52;;;;;;;;;9.33;9.33;;;;;;;;1533018;28;86745;-87
2021/03/03 11:27:37;;;;;;;;;5.33;5.33;;;;;;;;1538911;28;85228;-87
2021/03/03 11:28:23;;;;;;;;;6.33;6.33;;;;;;;;1536979;28;86027;-87
2021/03/03 11:29:09;;;;;;;;;6.50;6.50;;;;;;;;1532338;28;85880;-88
2021/03/03 11:29:54;;;;;;;;;6.25;6.25;;;;;;;;1530437;28;84896;-87
2021/03/03 11:30:40;;;;;;;;;6.00;6.00;;;;;;;;1532294;28;83644;-88
2021/03/03 11:31:25;;;;;;;;;9.33;8.67;;;;;;;;1532035;28;84488;-87
2021/03/03 11:32:10;;;;;;;;;8.00;8.00;;;;;;;;1534614;28;85101;-87
2021/03/03 11:32:55;;;;;;;;;6.33;6.33;;;;;;;;1531891;28;86276;-88
2021/03/03 11:33:41;;;;;;;;;6.67;6.67;;;;;;;;1534600;28;86951;-88
2021/03/03 11:34:27;;;;;;;;;7.67;7.67;;;;;;;;1536341;28;87035;-86
2021/03/03 11:35:13;;;;;;;;;8.00;8.00;;;;;;;;1530067;28;84045;-88
2021/03/03 11:35:58;;;;;;;;;10.33;9.33;;;;;;;;1529941;28;86560;-89
2021/03/03 11:36:43;;;;;;;;;6.67;6.67;;;;;;;;1529595;28;86909;-89
2021/03/03 11:37:29;;;;;;;;;7.67;6.00;;;;;;;;1525634;28;86897;-87
2021/03/03 11:38:14;;;;;;;;;7.33;7.33;;;;;;;;1531759;28;87294;-87
2021/03/03 11:38:59;;;;;;;;;7.00;7.00;;;;;;;;1537871;28;85089;-87
2021/03/03 11:39:45;;;;;;;;;9.33;9.33;;;;;;;;1535735;28;87182;-86
2021/03/03 11:40:30;;;;;;;;;6.00;6.00;;;;;;;;1529949;28;85419;-87
2021/03/03 11:41:15;;;;;;;;;9.33;9.33;;;;;;;;1525634;28;86780;-87
2021/03/03 11:42:02;;;;;;;;;9.00;9.00;;;;;;;;1529686;28;87078;-87
2021/03/03 11:42:47;;;;;;;;;6.00;6.00;;;;;;;;1525734;28;86936;-86
2021/03/03 11:43:32;;;;;;;;;6.67;6.67;;;;;;;;1525776;28;86765;-86
2021/03/03 11:44:18;;;;;;;;;8.67;8.67;;;;;;;;1531360;28;87613;-86
2021/03/03 11:45:05;;;;;;;;;6.67;6.67;;;;;;;;1531470;28;87028;-86
2021/03/03 11:45:50;;;;;;;;;7.25;7.25;;;;;;;;1531890;28;86925;-86
2021/03/03 11:46:36;;;;;;;;;7.67;7.67;;;;;;;;1531935;28;86959;-86
2021/03/03 11:47:21;;;;;;;;;9.33;9.33;;;;;;;;1535720;28;83243;-87
2021/03/03 11:48:06;;;;;;;;;8.33;8.33;;;;;;;;1537631;28;86886;-87
2021/03/03 11:48:52;;;;;;;;;6.00;6.00;;;;;;;;1542135;28;85048;-87
2021/03/03 11:49:37;;;;;;;;;9.67;9.67;;;;;;;;1540130;28;84203;-85
2021/03/03 11:50:22;;;;;;;;;10.33;9.67;;;;;;;;1536414;28;85410;-87
2021/03/03 11:51:08;;;;;;;;;7.33;7.33;;;;;;;;1529756;28;87073;-86
2021/03/03 11:51:53;;;;;;;;;7.67;7.67;;;;;;;;1531761;28;84382;-86
2021/03/03 11:52:38;;;;;;;;;10.00;10.00;;;;;;;;1535842;28;85291;-86
2021/03/03 11:53:23;;;;;;;;;8.00;8.00;;;;;;;;1541871;28;88075;-87
2021/03/03 11:54:09;;;;;;;;;6.33;6.33;;;;;;;;1537418;28;87171;-86
2021/03/03 11:54:54;;;;;;;;;6.00;6.00;;;;;;;;1538578;28;85323;-86
2021/03/03 11:55:39;;;;;;;;;9.67;9.67;;;;;;;;1537680;28;85417;-85
2021/03/03 11:56:24;;;;;;;;;6.67;6.00;;;;;;;;1535843;28;83749;-87
2021/03/03 11:57:10;;;;;;;;;5.33;5.33;;;;;;;;1537482;28;83694;-87
2021/03/03 11:57:55;;;;;;;;;7.67;7.67;;;;;;;;1537840;28;83548;-87
2021/03/03 11:58:41;;;;;;;;;7.33;7.33;;;;;;;;1536383;28;83185;-88
2021/03/03 11:59:26;;;;;;;;;8.67;8.67;;;;;;;;1537799;28;85124;-86
2021/03/03 12:00:12;;;;;;;;;9.67;9.67;;;;;;;;1541806;28;85047;-86
2021/03/03 12:00:58;;;;;;;;;9.00;9.00;;;;;;;;1530013;28;84858;-88
2021/03/03 12:01:43;;;;;;;;;9.33;9.33;;;;;;;;1526007;28;85040;-86
2021/03/03 12:02:28;;;;;;;;;8.00;8.00;;;;;;;;1532120;28;83565;-87
2021/03/03 12:03:14;;;;;;;;;7.33;7.33;;;;;;;;1538037;28;83906;-87
2021/03/03 12:03:59;;;;;;;;;9.33;9.33;;;;;;;;1534011;28;84172;-87
2021/03/03 12:04:44;;;;;;;;;7.00;7.00;;;;;;;;1527991;28;84143;-87
2021/03/03 12:05:29;;;;;;;;;7.33;7.33;;;;;;;;1531740;28;83952;-87
2021/03/03 12:06:15;;;;;;;;;5.00;5.00;;;;;;;;1535794;28;83469;-87
2021/03/03 12:07:00;;;;;;;;;6.67;6.67;;;;;;;;1531633;28;83855;-87
2021/03/03 12:07:45;;;;;;;;;8.33;8.33;;;;;;;;1529622;28;84167;-86
2021/03/03 12:08:31;;;;;;;;;7.00;7.00;;;;;;;;1529843;28;85018;-87
2021/03/03 12:09:16;;;;;;;;;9.33;9.33;;;;;;;;1531749;28;82929;-87
2021/03/03 12:10:02;;;;;;;;;9.00;9.00;;;;;;;;1531797;28;83410;-87
2021/03/03 12:10:48;;;;;;;;;8.75;6.75;;;;;;;;1536001;28;84708;-87
2021/03/03 12:11:33;;;;;;;;;9.67;9.67;;;;;;;;1535091;28;83373;-87
2021/03/03 12:12:18;;;;;;;;;8.67;8.67;;;;;;;;1537706;28;85586;-87
2021/03/03 12:13:04;;;;;;;;;9.00;9.00;;;;;;;;1537653;28;84930;-88
2021/03/03 12:13:49;;;;;;;;;6.25;6.25;;;;;;;;1537791;28;84548;-87
2021/03/03 12:14:35;;;;;;;;;5.33;5.33;;;;;;;;1537485;28;84309;-87
2021/03/03 12:15:20;;;;;;;;;6.33;6.33;;;;;;;;1537879;28;85309;-87
2021/03/03 12:16:05;;;;;;;;;8.00;8.00;;;;;;;;1541785;28;83589;-87
2021/03/03 12:16:50;;;;;;;;;6.33;6.33;;;;;;;;1540349;28;83174;-87
2021/03/03 12:17:36;;;;;;;;;9.00;9.00;;;;;;;;1541944;28;83599;-87
2021/03/03 12:18:21;;;;;;;;;7.00;7.00;;;;;;;;1541822;28;85245;-88
2021/03/03 12:19:06;;;;;;;;;8.67;8.67;;;;;;;;1541746;28;86188;-88
2021/03/03 12:19:51;;;;;;;;;5.33;5.33;;;;;;;;1536563;28;83864;-87
2021/03/03 12:20:37;;;;;;;;;10.00;10.00;;;;;;;;1535812;28;86782;-88
2021/03/03 12:21:22;;;;;;;;;2.00;2.00;;;;;;;;1531496;28;86262;-88
2021/03/03 12:22:07;;;;;;;;;6.67;6.67;;;;;;;;1529752;28;85072;-88
2021/03/03 12:22:53;;;;;;;;;9.67;9.67;;;;;;;;1529569;28;84075;-89
2021/03/03 12:23:38;;;;;;;;;12.67;12.67;;;;;;;;1525525;28;85956;-89
2021/03/03 12:24:23;;;;;;;;;9.33;9.33;;;;;;;;1531416;28;83352;-88
2021/03/03 12:25:08;;;;;;;;;6.33;6.33;;;;;;;;1531208;28;86158;-88
2021/03/03 12:25:54;;;;;;;;;10.00;10.00;;;;;;;;1535127;28;86651;-88
2021/03/03 12:26:39;;;;;;;;;9.00;9.00;;;;;;;;1535794;28;85234;-89
2021/03/03 12:27:24;;;;;;;;;7.00;7.00;;;;;;;;1529624;28;84672;-88
2021/03/03 12:28:10;;;;;;;;;6.00;6.00;;;;;;;;1525610;28;84591;-88
2021/03/03 12:28:55;;;;;;;;;11.33;11.33;;;;;;;;1525301;28;86498;-88
2021/03/03 12:29:40;;;;;;;;;8.33;8.33;;;;;;;;1525510;28;85428;-87
2021/03/03 12:30:26;;;;;;;;;9.67;9.67;;;;;;;;1525260;28;83534;-88
2021/03/03 12:31:12;;;;;;;;;10.50;10.50;;;;;;;;1529339;28;85846;-86
2021/03/03 12:31:57;;;;;;;;;9.67;9.67;;;;;;;;1537173;28;85526;-87
2021/03/03 12:32:42;;;;;;;;;5.00;5.00;;;;;;;;1541983;28;85133;-87
2021/03/03 12:33:28;;;;;;;;;9.33;9.33;;;;;;;;1543558;28;86637;-86
2021/03/03 12:34:13;;;;;;;;;8.67;8.67;;;;;;;;1541192;28;86030;-88
2021/03/03 12:34:58;;;;;;;;;11.67;11.67;;;;;;;;1533599;28;86256;-87
2021/03/03 12:35:43;;;;;;;;;9.00;9.00;;;;;;;;1527230;28;83285;-88
2021/03/03 12:36:29;;;;;;;;;8.33;8.33;;;;;;;;1535675;28;85932;-88
2021/03/03 12:37:14;;;;;;;;;10.00;10.00;;;;;;;;1533625;28;84639;-88
2021/03/03 12:37:59;;;;;;;;;7.00;7.00;;;;;;;;1528105;28;84963;-89
2021/03/03 12:38:45;;;;;;;;;3.67;3.67;;;;;;;;1525473;28;86574;-88
2021/03/03 12:39:30;;;;;;;;;6.00;6.00;;;;;;;;1526025;28;86810;-88
2021/03/03 12:40:15;;;;;;;;;5.67;5.67;;;;;;;;1525885;28;85289;-88
2021/03/03 12:41:01;;;;;;;;;5.67;5.67;;;;;;;;1525519;28;86265;-88
2021/03/03 12:41:46;;;;;;;;;8.00;8.00;;;;;;;;1526012;28;87858;-89
2021/03/03 12:42:31;;;;;;;;;6.33;6.33;;;;;;;;1526012;28;84080;-89
2021/03/03 12:43:17;;;;;;;;;10.00;9.33;;;;;;;;1525999;28;85612;-88
2021/03/03 12:44:02;;;;;;;;;5.33;5.33;;;;;;;;1527713;28;87714;-88
2021/03/03 12:44:48;;;;;;;;;6.00;6.00;;;;;;;;1530910;28;86550;-89
2021/03/03 12:45:33;;;;;;;;;6.33;6.33;;;;;;;;1525590;28;85738;-88
2021/03/03 12:46:18;;;;;;;;;7.33;7.33;;;;;;;;1529555;28;84103;-89
2021/03/03 12:47:03;;;;;;;;;12.00;10.67;;;;;;;;1525453;28;85092;-89
2021/03/03 12:47:49;;;;;;;;;9.00;9.00;;;;;;;;1531532;28;86803;-89
2021/03/03 12:48:34;;;;;;;;;9.33;9.33;;;;;;;;1537421;28;85634;-88
2021/03/03 12:49:19;;;;;;;;;7.00;7.00;;;;;;;;1532147;28;84996;-89
2021/03/03 12:50:05;;;;;;;;;7.00;7.00;;;;;;;;1529426;28;86688;-89
2021/03/03 12:50:50;;;;;;;;;8.25;8.25;;;;;;;;1525814;28;85970;-88
2021/03/03 12:51:36;;;;;;;;;8.33;8.33;;;;;;;;1531666;28;85222;-88
2021/03/03 12:52:21;;;;;;;;;7.33;7.33;;;;;;;;1531630;28;84523;-88
2021/03/03 12:53:06;;;;;;;;;6.00;6.00;;;;;;;;1529395;28;86487;-89
2021/03/03 12:53:51;;;;;;;;;5.00;5.00;;;;;;;;1529579;28;87002;-88
2021/03/03 12:54:37;;;;;;;;;6.00;6.00;;;;;;;;1529626;28;85114;-88
2021/03/03 12:55:22;;;;;;;;;4.33;4.33;;;;;;;;1529586;28;84480;-88
2021/03/03 12:56:07;;;;;;;;;8.67;8.67;;;;;;;;1531094;28;85530;-88
2021/03/03 12:56:52;;;;;;;;;3.00;3.00;;;;;;;;1529607;28;85147;-88
2021/03/03 12:57:38;;;;;;;;;5.33;5.33;;;;;;;;1525683;28;85738;-88
2021/03/03 12:58:23;;;;;;;;;4.00;4.00;;;;;;;;1537246;28;87208;-88
2021/03/03 12:59:09;;;;;;;;;7.50;7.50;;;;;;;;1533079;28;86835;-88
2021/03/03 12:59:54;;;;;;;;;4.33;4.33;;;;;;;;1528618;28;83036;-88
2021/03/03 13:00:40;;;;;;;;;6.67;6.67;;;;;;;;1531445;28;83462;-88
2021/03/03 13:01:25;;;;;;;;;6.33;6.33;;;;;;;;1536157;28;83722;-88
2021/03/03 13:02:10;;;;;;;;;7.33;7.33;;;;;;;;1537653;28;84266;-88
2021/03/03 13:02:55;;;;;;;;;9.00;9.00;;;;;;;;1537464;28;85967;-89
2021/03/03 13:03:43;;;;;;;;;6.00;6.00;;;;;;;;1543713;28;84506;-89
2021/03/03 13:04:29;;;;;;;;;8.00;8.00;;;;;;;;1535419;28;85405;-88
2021/03/03 13:05:15;;;;;;;;;8.00;8.00;;;;;;;;1531535;28;85038;-88
2021/03/03 13:06:00;;;;;;;;;6.25;6.25;;;;;;;;1535353;28;85129;-88
2021/03/03 13:06:46;;;;;;;;;6.00;6.00;;;;;;;;1537875;28;84266;-88
2021/03/03 13:07:31;;;;;;;;;4.00;4.00;;;;;;;;1539611;28;83485;-88
2021/03/03 13:08:16;;;;;;;;;3.33;3.33;;;;;;;;1529502;28;84866;-88
2021/03/03 13:09:02;;;;;;;;;1.67;1.67;;;;;;;;1531455;28;84533;-88
2021/03/03 13:09:47;;;;;;;;;8.00;8.00;;;;;;;;1535305;28;85004;-88
2021/03/03 13:10:32;;;;;;;;;9.00;9.00;;;;;;;;1537768;28;82907;-88
2021/03/03 13:11:18;;;;;;;;;7.33;7.33;;;;;;;;1539700;28;83706;-88
2021/03/03 13:12:03;;;;;;;;;6.00;6.00;;;;;;;;1529562;28;83928;-89
2021/03/03 13:12:48;;;;;;;;;5.33;5.33;;;;;;;;1535688;28;84122;-88
2021/03/03 13:13:34;;;;;;;;;9.33;9.33;;;;;;;;1531671;28;84136;-89
2021/03/03 13:14:19;;;;;;;;;5.00;5.00;;;;;;;;1535332;28;83333;-88
2021/03/03 13:15:05;;;;;;;;;7.00;7.00;;;;;;;;1531620;28;84044;-89
2021/03/03 13:15:50;;;;;;;;;6.50;6.25;;;;;;;;1535924;28;83996;-88
2021/03/03 13:16:36;;;;;;;;;7.00;5.67;;;;;;;;1538840;28;83642;-88
2021/03/03 13:17:21;;;;;;;;;5.67;5.67;;;;;;;;1540872;28;85586;-89
2021/03/03 13:18:06;;;;;;;;;9.00;9.00;;;;;;;;1530573;28;84941;-89
2021/03/03 13:18:52;;;;;;;;;5.00;5.00;;;;;;;;1533952;28;83607;-88
2021/03/03 13:19:37;;;;;;;;;7.00;7.00;;;;;;;;1538327;28;84120;-88
2021/03/03 13:20:22;;;;;;;;;10.00;10.00;;;;;;;;1538030;28;84330;-89
2021/03/03 13:21:08;;;;;;;;;6.67;6.67;;;;;;;;1546521;28;85449;-88
2021/03/03 13:21:53;;;;;;;;;7.67;7.67;;;;;;;;1544869;28;84632;-88
2021/03/03 13:22:38;;;;;;;;;6.67;6.67;;;;;;;;1541861;28;87253;-88
2021/03/03 13:23:24;;;;;;;;;6.00;6.00;;;;;;;;1541343;28;86867;-88
2021/03/03 13:24:09;;;;;;;;;6.00;6.00;;;;;;;;1543531;28;84073;-88
2021/03/03 13:24:54;;;;;;;;;7.00;7.00;;;;;;;;1543514;28;86216;-88
2021/03/03 13:25:39;;;;;;;;;8.00;8.00;;;;;;;;1541590;28;85934;-89
2021/03/03 13:26:25;;;;;;;;;3.00;3.00;;;;;;;;1539510;28;85985;-88
2021/03/03 13:27:10;;;;;;;;;8.67;8.67;;;;;;;;1541967;28;86110;-87
2021/03/03 13:27:55;;;;;;;;;6.33;6.33;;;;;;;;1535891;28;85180;-88
2021/03/03 13:28:40;;;;;;;;;7.00;7.00;;;;;;;;1535540;28;84644;-88
2021/03/03 13:29:26;;;;;;;;;7.67;7.33;;;;;;;;1532742;28;86439;-88
2021/03/03 13:30:11;;;;;;;;;6.00;6.00;;;;;;;;1541688;28;83674;-87
2021/03/03 13:30:57;;;;;;;;;5.50;5.50;;;;;;;;1535990;28;84779;-89